Box Springs, Georgia
Current Conditions -  °F | °C
As of 12:51 PM on Monday 22 Dec 2014 (Local Time) from KCSG Reporting Station
Haze Haze  
Wind Chill: 45°   Ceiling: 500
Heat Index: 49°   Visibility: 1mi
Dew Point: 47°   Wind: 10mph
Humidity: 93%   Direction: 100°E
Pressure: 29.93"   Gusts: NA
Location:  32.53°N, 84.66°W
Report Text: KCSG 221751Z 10009KT 1SM BR OVC005 09/08 A2993 RMK AO2 PRESFR SLP133 60000 T00940083 10094 20083 56030
Loading
Personal Weather Stations






























Interactive Weather Map New forecast layout! Learn more

10-Day Weather Forecast

Advertisements
Track Severe Weather on mobile